Portada
METAR-TAF:

METAR-TAF

Aeroports :

Erzurum, Turquia

latitud: 39-55N, longitud: 041-16E, altitud: 1756 m

Observació

L'informe es va fer fa 20 minuts, a les 19:50 UTC
Vent 10 kt del Est/Nord-Est
Temperatura 2°C
Humitat 80%
Pressió 1020 hPa
Visibilitat 10 km o més
sense núvols per sota de 1500 mi sense presència de cumulonimbus.

METAR: LTCE 071950Z 06010KT CAVOK 02/M01 Q1020 NOSIG

Hora: 23:10 (20:10 UTC)

Pronòstic

L'informe es va fer fa 3 hores i 30 minuts, a les 16:40 UTC
Pronòstic vàlid del 07 a les 18 UTC al 08 a les 18 UTC
Vent 13 kt del Est
Visibilitat 10 km o més
sense núvols per sota de 1500 mi sense presència de cumulonimbus.

TAF: LTCE 071640Z 0718/0818 08013KT CAVOK

Observacions i pronòstics meteorològics de més de 4000 aeroports (METAR i TAF).

Les estacions disponibles són els punts grocs i vermells al mapa.

Posi el ratolí al punt desitjat per veure el nom de l'estació.

Feu clic per veure les observacions i els pronòstics meteorològics.

Per canviar el mapa: feu clic els botons verds amb una creu de color negre per apropar; al botó verd amb un guió per allunyar la imatge; o en les fletxes verdes per a mapes adjacents.


METAR-TAF: